sensor_id;sensor_type;location;lat;lon;timestamp;temperature;humidity
1361;DHT22;674;45.552;-122.600;2023-04-16T00:02:04;15.70;1.00
1361;DHT22;674;45.552;-122.600;2023-04-16T00:04:33;15.60;1.00
1361;DHT22;674;45.552;-122.600;2023-04-16T00:07:02;15.70;1.00
1361;DHT22;674;45.552;-122.600;2023-04-16T00:09:30;15.50;1.00
1361;DHT22;674;45.552;-122.600;2023-04-16T00:11:59;15.50;1.00
1361;DHT22;674;45.552;-122.600;2023-04-16T00:14:28;15.40;1.00
1361;DHT22;674;45.552;-122.600;2023-04-16T00:16:56;15.20;1.00
1361;DHT22;674;45.552;-122.600;2023-04-16T00:19:25;15.10;1.00
1361;DHT22;674;45.552;-122.600;2023-04-16T00:21:54;15.00;1.00
1361;DHT22;674;45.552;-122.600;2023-04-16T00:24:22;15.10;1.00
1361;DHT22;674;45.552;-122.600;2023-04-16T00:26:50;15.10;1.00
1361;DHT22;674;45.552;-122.600;2023-04-16T00:29:19;15.20;1.00
1361;DHT22;674;45.552;-122.600;2023-04-16T00:31:48;15.10;1.00
1361;DHT22;674;45.552;-122.600;2023-04-16T00:34:16;15.30;1.00
1361;DHT22;674;45.552;-122.600;2023-04-16T00:36:45;15.40;1.00
1361;DHT22;674;45.552;-122.600;2023-04-16T00:39:13;15.50;1.00
1361;DHT22;674;45.552;-122.600;2023-04-16T00:41:42;15.00;1.00
1361;DHT22;674;45.552;-122.600;2023-04-16T00:44:11;15.30;1.00
1361;DHT22;674;45.552;-122.600;2023-04-16T00:46:39;15.40;1.00
1361;DHT22;674;45.552;-122.600;2023-04-16T00:49:09;15.60;1.00
1361;DHT22;674;45.552;-122.600;2023-04-16T00:51:37;15.90;1.00
1361;DHT22;674;45.552;-122.600;2023-04-16T00:54:06;15.70;1.00
1361;DHT22;674;45.552;-122.600;2023-04-16T00:56:35;15.80;1.00
1361;DHT22;674;45.552;-122.600;2023-04-16T00:59:04;15.70;1.00
1361;DHT22;674;45.552;-122.600;2023-04-16T01:01:32;15.40;1.00
1361;DHT22;674;45.552;-122.600;2023-04-16T01:04:01;15.30;1.00
1361;DHT22;674;45.552;-122.600;2023-04-16T01:06:30;15.40;1.00
1361;DHT22;674;45.552;-122.600;2023-04-16T01:08:59;15.20;1.00
1361;DHT22;674;45.552;-122.600;2023-04-16T01:11:27;15.20;1.00
1361;DHT22;674;45.552;-122.600;2023-04-16T01:13:57;15.30;1.00
1361;DHT22;674;45.552;-122.600;2023-04-16T01:16:25;15.20;1.00
1361;DHT22;674;45.552;-122.600;2023-04-16T01:18:53;15.40;1.00
1361;DHT22;674;45.552;-122.600;2023-04-16T01:21:22;15.20;1.00
1361;DHT22;674;45.552;-122.600;2023-04-16T01:23:50;15.10;1.00
1361;DHT22;674;45.552;-122.600;2023-04-16T01:26:19;15.10;1.00
1361;DHT22;674;45.552;-122.600;2023-04-16T01:28:48;15.10;1.00
1361;DHT22;674;45.552;-122.600;2023-04-16T01:31:16;15.10;1.00
1361;DHT22;674;45.552;-122.600;2023-04-16T01:33:45;14.90;1.00
1361;DHT22;674;45.552;-122.600;2023-04-16T01:36:13;14.50;1.00
1361;DHT22;674;45.552;-122.600;2023-04-16T01:38:42;14.30;1.00
1361;DHT22;674;45.552;-122.600;2023-04-16T01:41:11;14.20;1.00
1361;DHT22;674;45.552;-122.600;2023-04-16T01:43:39;14.30;1.00
1361;DHT22;674;45.552;-122.600;2023-04-16T01:46:22;14.50;1.00
1361;DHT22;674;45.552;-122.600;2023-04-16T01:48:54;14.60;1.00
1361;DHT22;674;45.552;-122.600;2023-04-16T01:51:23;14.60;1.00
1361;DHT22;674;45.552;-122.600;2023-04-16T01:53:51;14.50;1.00
1361;DHT22;674;45.552;-122.600;2023-04-16T01:56:20;14.50;1.00
1361;DHT22;674;45.552;-122.600;2023-04-16T01:58:48;14.40;1.00
1361;DHT22;674;45.552;-122.600;2023-04-16T02:01:17;14.30;1.00
1361;DHT22;674;45.552;-122.600;2023-04-16T02:03:46;14.30;1.00
1361;DHT22;674;45.552;-122.600;2023-04-16T02:06:16;14.30;1.00
1361;DHT22;674;45.552;-122.600;2023-04-16T02:08:44;14.40;1.00
1361;DHT22;674;45.552;-122.600;2023-04-16T02:11:14;14.30;1.00
1361;DHT22;674;45.552;-122.600;2023-04-16T02:13:42;14.20;1.00
1361;DHT22;674;45.552;-122.600;2023-04-16T02:16:11;14.00;1.00
1361;DHT22;674;45.552;-122.600;2023-04-16T02:18:40;13.70;1.00
1361;DHT22;674;45.552;-122.600;2023-04-16T02:21:08;13.70;1.00
1361;DHT22;674;45.552;-122.600;2023-04-16T02:23:37;13.70;1.00
1361;DHT22;674;45.552;-122.600;2023-04-16T02:26:08;13.60;1.00
1361;DHT22;674;45.552;-122.600;2023-04-16T02:28:36;13.50;1.00
1361;DHT22;674;45.552;-122.600;2023-04-16T02:31:04;13.70;1.00
1361;DHT22;674;45.552;-122.600;2023-04-16T02:33:33;13.40;1.00
1361;DHT22;674;45.552;-122.600;2023-04-16T02:36:02;13.50;1.00
1361;DHT22;674;45.552;-122.600;2023-04-16T02:38:31;13.50;1.00
1361;DHT22;674;45.552;-122.600;2023-04-16T02:41:00;13.10;1.00
1361;DHT22;674;45.552;-122.600;2023-04-16T02:43:28;13.10;1.00
1361;DHT22;674;45.552;-122.600;2023-04-16T02:45:57;13.00;1.00
1361;DHT22;674;45.552;-122.600;2023-04-16T02:48:26;12.90;1.00
1361;DHT22;674;45.552;-122.600;2023-04-16T02:50:54;12.90;1.00
1361;DHT22;674;45.552;-122.600;2023-04-16T02:53:23;12.90;1.00
1361;DHT22;674;45.552;-122.600;2023-04-16T02:55:53;13.00;1.00
1361;DHT22;674;45.552;-122.600;2023-04-16T02:58:22;12.90;1.00
1361;DHT22;674;45.552;-122.600;2023-04-16T03:00:52;12.80;1.00
1361;DHT22;674;45.552;-122.600;2023-04-16T03:03:21;12.80;1.00
1361;DHT22;674;45.552;-122.600;2023-04-16T03:05:49;13.00;1.00
1361;DHT22;674;45.552;-122.600;2023-04-16T03:08:18;13.00;1.00
1361;DHT22;674;45.552;-122.600;2023-04-16T03:10:46;12.90;1.00
1361;DHT22;674;45.552;-122.600;2023-04-16T03:13:15;13.00;1.00
1361;DHT22;674;45.552;-122.600;2023-04-16T03:15:50;13.00;1.00
1361;DHT22;674;45.552;-122.600;2023-04-16T03:18:19;12.90;1.00
1361;DHT22;674;45.552;-122.600;2023-04-16T03:20:51;12.90;1.00
1361;DHT22;674;45.552;-122.600;2023-04-16T03:23:20;12.90;1.00
1361;DHT22;674;45.552;-122.600;2023-04-16T03:25:48;12.90;1.00
1361;DHT22;674;45.552;-122.600;2023-04-16T03:28:17;12.90;1.00
1361;DHT22;674;45.552;-122.600;2023-04-16T03:30:52;12.70;1.00
1361;DHT22;674;45.552;-122.600;2023-04-16T03:33:21;12.60;1.00
1361;DHT22;674;45.552;-122.600;2023-04-16T03:35:56;12.70;1.00
1361;DHT22;674;45.552;-122.600;2023-04-16T03:38:25;12.70;1.00
1361;DHT22;674;45.552;-122.600;2023-04-16T03:40:53;12.80;1.00
1361;DHT22;674;45.552;-122.600;2023-04-16T03:43:22;12.60;1.00
1361;DHT22;674;45.552;-122.600;2023-04-16T03:45:51;12.60;1.00
1361;DHT22;674;45.552;-122.600;2023-04-16T03:48:19;12.50;1.00
1361;DHT22;674;45.552;-122.600;2023-04-16T03:50:47;12.50;1.00
1361;DHT22;674;45.552;-122.600;2023-04-16T03:53:16;12.50;1.00
1361;DHT22;674;45.552;-122.600;2023-04-16T03:55:49;12.60;1.00
1361;DHT22;674;45.552;-122.600;2023-04-16T03:58:20;12.50;1.00
1361;DHT22;674;45.552;-122.600;2023-04-16T04:00:51;12.50;1.00
1361;DHT22;674;45.552;-122.600;2023-04-16T04:03:20;12.50;1.00
1361;DHT22;674;45.552;-122.600;2023-04-16T04:05:48;12.50;1.00
1361;DHT22;674;45.552;-122.600;2023-04-16T04:08:17;12.50;1.00
1361;DHT22;674;45.552;-122.600;2023-04-16T04:10:46;12.40;1.00
1361;DHT22;674;45.552;-122.600;2023-04-16T04:13:14;12.30;1.00
1361;DHT22;674;45.552;-122.600;2023-04-16T04:15:43;12.40;1.00
1361;DHT22;674;45.552;-122.600;2023-04-16T04:18:12;12.20;1.00
1361;DHT22;674;45.552;-122.600;2023-04-16T04:20:40;12.30;1.00
1361;DHT22;674;45.552;-122.600;2023-04-16T04:23:09;12.30;1.00
1361;DHT22;674;45.552;-122.600;2023-04-16T04:25:38;12.40;1.00
1361;DHT22;674;45.552;-122.600;2023-04-16T04:28:06;12.30;1.00
1361;DHT22;674;45.552;-122.600;2023-04-16T04:30:35;12.30;1.00
1361;DHT22;674;45.552;-122.600;2023-04-16T04:33:04;12.20;1.00
1361;DHT22;674;45.552;-122.600;2023-04-16T04:35:32;12.30;1.00
1361;DHT22;674;45.552;-122.600;2023-04-16T04:38:02;12.40;1.00
1361;DHT22;674;45.552;-122.600;2023-04-16T04:40:31;12.20;1.00
1361;DHT22;674;45.552;-122.600;2023-04-16T04:42:59;12.20;1.00
1361;DHT22;674;45.552;-122.600;2023-04-16T04:45:28;12.20;1.00
1361;DHT22;674;45.552;-122.600;2023-04-16T04:47:58;12.10;1.00
1361;DHT22;674;45.552;-122.600;2023-04-16T04:50:26;12.00;1.00
1361;DHT22;674;45.552;-122.600;2023-04-16T04:52:55;12.10;1.00
1361;DHT22;674;45.552;-122.600;2023-04-16T04:55:24;12.10;1.00
1361;DHT22;674;45.552;-122.600;2023-04-16T04:57:52;12.20;1.00
1361;DHT22;674;45.552;-122.600;2023-04-16T05:00:21;12.10;1.00
1361;DHT22;674;45.552;-122.600;2023-04-16T05:02:50;12.10;1.00
1361;DHT22;674;45.552;-122.600;2023-04-16T05:05:19;12.10;1.00
1361;DHT22;674;45.552;-122.600;2023-04-16T05:07:47;12.20;1.00
1361;DHT22;674;45.552;-122.600;2023-04-16T05:10:16;12.20;1.00
1361;DHT22;674;45.552;-122.600;2023-04-16T05:12:46;11.90;1.00
1361;DHT22;674;45.552;-122.600;2023-04-16T05:15:15;11.90;1.00
1361;DHT22;674;45.552;-122.600;2023-04-16T05:17:44;11.90;1.00
1361;DHT22;674;45.552;-122.600;2023-04-16T05:20:12;12.00;1.00
1361;DHT22;674;45.552;-122.600;2023-04-16T05:22:41;12.10;1.00
1361;DHT22;674;45.552;-122.600;2023-04-16T05:25:10;11.90;1.00
1361;DHT22;674;45.552;-122.600;2023-04-16T05:27:38;11.80;1.00
1361;DHT22;674;45.552;-122.600;2023-04-16T05:30:08;12.00;1.00
1361;DHT22;674;45.552;-122.600;2023-04-16T05:32:38;12.00;1.00
1361;DHT22;674;45.552;-122.600;2023-04-16T05:35:08;11.80;1.00
1361;DHT22;674;45.552;-122.600;2023-04-16T05:37:37;11.70;1.00
1361;DHT22;674;45.552;-122.600;2023-04-16T05:40:06;11.80;1.00
1361;DHT22;674;45.552;-122.600;2023-04-16T05:42:35;11.80;1.00
1361;DHT22;674;45.552;-122.600;2023-04-16T05:45:05;11.70;1.00
1361;DHT22;674;45.552;-122.600;2023-04-16T05:47:33;11.80;1.00
1361;DHT22;674;45.552;-122.600;2023-04-16T05:50:03;11.60;1.00
1361;DHT22;674;45.552;-122.600;2023-04-16T05:52:31;11.60;1.00
1361;DHT22;674;45.552;-122.600;2023-04-16T05:55:00;11.50;1.00
1361;DHT22;674;45.552;-122.600;2023-04-16T05:57:29;11.60;1.00
1361;DHT22;674;45.552;-122.600;2023-04-16T05:59:57;11.70;1.00
1361;DHT22;674;45.552;-122.600;2023-04-16T06:02:26;11.80;1.00
1361;DHT22;674;45.552;-122.600;2023-04-16T06:04:55;11.90;1.00
1361;DHT22;674;45.552;-122.600;2023-04-16T06:07:23;11.70;1.00
1361;DHT22;674;45.552;-122.600;2023-04-16T06:09:52;11.60;1.00
1361;DHT22;674;45.552;-122.600;2023-04-16T06:12:20;11.60;1.00
1361;DHT22;674;45.552;-122.600;2023-04-16T06:14:49;11.60;1.00
1361;DHT22;674;45.552;-122.600;2023-04-16T06:17:17;11.50;1.00
1361;DHT22;674;45.552;-122.600;2023-04-16T06:19:46;11.60;1.00
1361;DHT22;674;45.552;-122.600;2023-04-16T06:22:15;11.50;1.00
1361;DHT22;674;45.552;-122.600;2023-04-16T06:24:43;11.40;1.00
1361;DHT22;674;45.552;-122.600;2023-04-16T06:27:12;11.30;1.00
1361;DHT22;674;45.552;-122.600;2023-04-16T06:29:40;11.40;1.00
1361;DHT22;674;45.552;-122.600;2023-04-16T06:32:09;11.60;1.00
1361;DHT22;674;45.552;-122.600;2023-04-16T06:34:38;11.60;1.00
1361;DHT22;674;45.552;-122.600;2023-04-16T06:37:06;11.60;1.00
1361;DHT22;674;45.552;-122.600;2023-04-16T06:39:36;11.60;1.00
1361;DHT22;674;45.552;-122.600;2023-04-16T06:42:05;11.70;1.00
1361;DHT22;674;45.552;-122.600;2023-04-16T06:44:34;11.60;1.00
1361;DHT22;674;45.552;-122.600;2023-04-16T06:47:03;11.50;1.00
1361;DHT22;674;45.552;-122.600;2023-04-16T06:49:31;11.40;1.00
1361;DHT22;674;45.552;-122.600;2023-04-16T06:52:00;11.40;1.00
1361;DHT22;674;45.552;-122.600;2023-04-16T06:54:32;11.40;1.00
1361;DHT22;674;45.552;-122.600;2023-04-16T06:57:00;11.40;1.00
1361;DHT22;674;45.552;-122.600;2023-04-16T06:59:30;11.30;1.00
1361;DHT22;674;45.552;-122.600;2023-04-16T07:01:58;11.30;1.00
1361;DHT22;674;45.552;-122.600;2023-04-16T07:04:27;11.30;1.00
1361;DHT22;674;45.552;-122.600;2023-04-16T07:06:57;11.30;1.00
1361;DHT22;674;45.552;-122.600;2023-04-16T07:09:26;11.20;1.00
1361;DHT22;674;45.552;-122.600;2023-04-16T07:11:55;11.00;1.00
1361;DHT22;674;45.552;-122.600;2023-04-16T07:14:23;11.00;1.00
1361;DHT22;674;45.552;-122.600;2023-04-16T07:16:52;11.00;1.00
1361;DHT22;674;45.552;-122.600;2023-04-16T07:19:20;11.10;1.00
1361;DHT22;674;45.552;-122.600;2023-04-16T07:21:49;11.00;1.00
1361;DHT22;674;45.552;-122.600;2023-04-16T07:24:17;11.00;1.00
1361;DHT22;674;45.552;-122.600;2023-04-16T07:26:46;10.90;1.00
1361;DHT22;674;45.552;-122.600;2023-04-16T07:29:14;10.90;1.00
1361;DHT22;674;45.552;-122.600;2023-04-16T07:31:43;10.90;1.00
1361;DHT22;674;45.552;-122.600;2023-04-16T07:34:12;10.70;1.00
1361;DHT22;674;45.552;-122.600;2023-04-16T07:36:41;10.70;1.00
1361;DHT22;674;45.552;-122.600;2023-04-16T07:39:09;10.60;1.00
1361;DHT22;674;45.552;-122.600;2023-04-16T07:41:39;10.60;1.00
1361;DHT22;674;45.552;-122.600;2023-04-16T07:44:08;10.50;1.00
1361;DHT22;674;45.552;-122.600;2023-04-16T07:46:36;10.50;1.00
1361;DHT22;674;45.552;-122.600;2023-04-16T07:49:13;10.60;1.00
1361;DHT22;674;45.552;-122.600;2023-04-16T07:51:42;10.60;1.00
1361;DHT22;674;45.552;-122.600;2023-04-16T07:54:11;10.70;1.00
1361;DHT22;674;45.552;-122.600;2023-04-16T07:56:39;10.70;1.00
1361;DHT22;674;45.552;-122.600;2023-04-16T07:59:08;10.80;1.00
1361;DHT22;674;45.552;-122.600;2023-04-16T08:01:50;10.80;1.00
1361;DHT22;674;45.552;-122.600;2023-04-16T08:04:19;10.90;1.00
1361;DHT22;674;45.552;-122.600;2023-04-16T08:06:53;11.00;1.00
1361;DHT22;674;45.552;-122.600;2023-04-16T08:09:25;10.90;1.00
1361;DHT22;674;45.552;-122.600;2023-04-16T08:11:54;10.90;1.00
1361;DHT22;674;45.552;-122.600;2023-04-16T08:14:22;11.00;1.00
1361;DHT22;674;45.552;-122.600;2023-04-16T08:16:51;10.90;1.00
1361;DHT22;674;45.552;-122.600;2023-04-16T08:19:19;11.00;1.00
1361;DHT22;674;45.552;-122.600;2023-04-16T08:21:48;10.90;1.00
1361;DHT22;674;45.552;-122.600;2023-04-16T08:24:16;10.90;1.00
1361;DHT22;674;45.552;-122.600;2023-04-16T08:26:45;10.80;1.00
1361;DHT22;674;45.552;-122.600;2023-04-16T08:29:14;10.60;1.00
1361;DHT22;674;45.552;-122.600;2023-04-16T08:31:42;10.40;1.00
1361;DHT22;674;45.552;-122.600;2023-04-16T08:34:12;10.30;1.00
1361;DHT22;674;45.552;-122.600;2023-04-16T08:36:40;10.10;1.00
1361;DHT22;674;45.552;-122.600;2023-04-16T08:39:09;10.20;1.00
1361;DHT22;674;45.552;-122.600;2023-04-16T08:41:41;10.20;1.00
1361;DHT22;674;45.552;-122.600;2023-04-16T08:44:25;10.20;1.00
1361;DHT22;674;45.552;-122.600;2023-04-16T08:46:55;10.30;1.00
1361;DHT22;674;45.552;-122.600;2023-04-16T08:49:26;10.10;1.00
1361;DHT22;674;45.552;-122.600;2023-04-16T08:51:56;10.10;1.00
1361;DHT22;674;45.552;-122.600;2023-04-16T08:54:34;10.20;1.00
1361;DHT22;674;45.552;-122.600;2023-04-16T08:57:06;10.20;1.00
1361;DHT22;674;45.552;-122.600;2023-04-16T08:59:37;10.10;1.00
1361;DHT22;674;45.552;-122.600;2023-04-16T09:02:08;10.20;1.00
1361;DHT22;674;45.552;-122.600;2023-04-16T09:04:40;10.10;1.00
1361;DHT22;674;45.552;-122.600;2023-04-16T09:07:10;10.30;1.00
1361;DHT22;674;45.552;-122.600;2023-04-16T09:09:39;10.20;1.00
1361;DHT22;674;45.552;-122.600;2023-04-16T09:12:08;10.10;1.00
1361;DHT22;674;45.552;-122.600;2023-04-16T09:14:37;10.10;1.00
1361;DHT22;674;45.552;-122.600;2023-04-16T09:17:09;10.00;1.00
1361;DHT22;674;45.552;-122.600;2023-04-16T09:19:38;10.10;1.00
1361;DHT22;674;45.552;-122.600;2023-04-16T09:22:06;10.10;1.00
1361;DHT22;674;45.552;-122.600;2023-04-16T09:24:35;10.20;1.00
1361;DHT22;674;45.552;-122.600;2023-04-16T09:27:07;10.30;1.00
1361;DHT22;674;45.552;-122.600;2023-04-16T09:29:40;10.10;1.00
1361;DHT22;674;45.552;-122.600;2023-04-16T09:32:10;10.10;1.00
1361;DHT22;674;45.552;-122.600;2023-04-16T09:35:01;10.20;1.00
1361;DHT22;674;45.552;-122.600;2023-04-16T09:37:30;10.20;1.00
1361;DHT22;674;45.552;-122.600;2023-04-16T09:40:03;10.10;1.00
1361;DHT22;674;45.552;-122.600;2023-04-16T09:42:34;10.10;1.00
1361;DHT22;674;45.552;-122.600;2023-04-16T09:45:04;10.00;1.00
1361;DHT22;674;45.552;-122.600;2023-04-16T09:47:43;9.90;1.00
1361;DHT22;674;45.552;-122.600;2023-04-16T09:50:17;10.10;1.00
1361;DHT22;674;45.552;-122.600;2023-04-16T09:52:49;10.00;1.00
1361;DHT22;674;45.552;-122.600;2023-04-16T09:55:26;10.00;1.00
1361;DHT22;674;45.552;-122.600;2023-04-16T09:57:58;9.90;1.00
1361;DHT22;674;45.552;-122.600;2023-04-16T10:00:29;9.90;1.00
1361;DHT22;674;45.552;-122.600;2023-04-16T10:03:05;9.90;1.00
1361;DHT22;674;45.552;-122.600;2023-04-16T10:05:34;9.80;1.00
1361;DHT22;674;45.552;-122.600;2023-04-16T10:08:11;9.70;1.00
1361;DHT22;674;45.552;-122.600;2023-04-16T10:10:40;9.70;1.00
1361;DHT22;674;45.552;-122.600;2023-04-16T10:13:09;9.70;1.00
1361;DHT22;674;45.552;-122.600;2023-04-16T10:15:40;9.70;1.00
1361;DHT22;674;45.552;-122.600;2023-04-16T10:18:09;9.80;1.00
1361;DHT22;674;45.552;-122.600;2023-04-16T10:20:38;9.80;1.00
1361;DHT22;674;45.552;-122.600;2023-04-16T10:23:08;9.90;1.00
1361;DHT22;674;45.552;-122.600;2023-04-16T10:25:37;9.80;1.00
1361;DHT22;674;45.552;-122.600;2023-04-16T10:28:06;9.70;1.00
1361;DHT22;674;45.552;-122.600;2023-04-16T10:30:36;9.80;1.00
1361;DHT22;674;45.552;-122.600;2023-04-16T10:33:06;9.70;1.00
1361;DHT22;674;45.552;-122.600;2023-04-16T10:35:38;9.70;1.00
1361;DHT22;674;45.552;-122.600;2023-04-16T10:38:27;9.60;1.00
1361;DHT22;674;45.552;-122.600;2023-04-16T10:41:05;9.60;1.00
1361;DHT22;674;45.552;-122.600;2023-04-16T10:43:44;9.70;1.00
1361;DHT22;674;45.552;-122.600;2023-04-16T10:46:30;9.70;1.00
1361;DHT22;674;45.552;-122.600;2023-04-16T10:49:12;9.80;1.00
1361;DHT22;674;45.552;-122.600;2023-04-16T10:51:42;9.80;1.00
1361;DHT22;674;45.552;-122.600;2023-04-16T10:54:20;9.40;1.00
1361;DHT22;674;45.552;-122.600;2023-04-16T10:56:49;9.50;1.00
1361;DHT22;674;45.552;-122.600;2023-04-16T10:59:20;9.40;1.00
1361;DHT22;674;45.552;-122.600;2023-04-16T11:01:54;9.50;1.00
1361;DHT22;674;45.552;-122.600;2023-04-16T11:09:44;9.50;1.00
1361;DHT22;674;45.552;-122.600;2023-04-16T11:12:16;9.40;1.00
1361;DHT22;674;45.552;-122.600;2023-04-16T11:15:00;9.40;1.00
1361;DHT22;674;45.552;-122.600;2023-04-16T11:17:43;9.30;1.00
1361;DHT22;674;45.552;-122.600;2023-04-16T11:20:17;9.50;1.00
1361;DHT22;674;45.552;-122.600;2023-04-16T11:22:51;9.50;1.00
1361;DHT22;674;45.552;-122.600;2023-04-16T11:25:25;9.50;1.00
1361;DHT22;674;45.552;-122.600;2023-04-16T11:27:54;9.20;1.00
1361;DHT22;674;45.552;-122.600;2023-04-16T11:30:33;9.20;1.00
1361;DHT22;674;45.552;-122.600;2023-04-16T11:33:07;9.30;1.00
1361;DHT22;674;45.552;-122.600;2023-04-16T11:35:37;9.40;1.00
1361;DHT22;674;45.552;-122.600;2023-04-16T11:38:06;9.40;1.00
1361;DHT22;674;45.552;-122.600;2023-04-16T11:40:35;9.40;1.00
1361;DHT22;674;45.552;-122.600;2023-04-16T11:43:12;9.50;1.00
1361;DHT22;674;45.552;-122.600;2023-04-16T11:46:00;9.40;1.00
1361;DHT22;674;45.552;-122.600;2023-04-16T11:49:05;9.30;1.00
1361;DHT22;674;45.552;-122.600;2023-04-16T11:51:44;9.30;1.00
1361;DHT22;674;45.552;-122.600;2023-04-16T11:54:21;9.20;1.00
1361;DHT22;674;45.552;-122.600;2023-04-16T11:56:51;9.20;1.00
1361;DHT22;674;45.552;-122.600;2023-04-16T11:59:22;9.20;1.00
1361;DHT22;674;45.552;-122.600;2023-04-16T12:01:54;9.00;1.00
1361;DHT22;674;45.552;-122.600;2023-04-16T12:04:25;9.10;1.00
1361;DHT22;674;45.552;-122.600;2023-04-16T12:07:10;9.20;1.00
1361;DHT22;674;45.552;-122.600;2023-04-16T12:09:40;9.20;1.00
1361;DHT22;674;45.552;-122.600;2023-04-16T12:12:29;9.40;1.00
1361;DHT22;674;45.552;-122.600;2023-04-16T12:14:59;9.10;1.00
1361;DHT22;674;45.552;-122.600;2023-04-16T12:17:31;9.20;1.00
1361;DHT22;674;45.552;-122.600;2023-04-16T12:20:09;9.10;1.00
1361;DHT22;674;45.552;-122.600;2023-04-16T12:22:40;9.10;1.00
1361;DHT22;674;45.552;-122.600;2023-04-16T12:25:13;9.10;1.00
1361;DHT22;674;45.552;-122.600;2023-04-16T12:30:18;9.20;1.00
1361;DHT22;674;45.552;-122.600;2023-04-16T12:32:50;9.10;1.00
1361;DHT22;674;45.552;-122.600;2023-04-16T12:35:33;9.20;1.00
1361;DHT22;674;45.552;-122.600;2023-04-16T12:38:02;9.20;1.00
1361;DHT22;674;45.552;-122.600;2023-04-16T12:40:31;9.20;1.00
1361;DHT22;674;45.552;-122.600;2023-04-16T12:42:59;9.00;1.00
1361;DHT22;674;45.552;-122.600;2023-04-16T12:45:28;8.90;1.00
1361;DHT22;674;45.552;-122.600;2023-04-16T12:47:56;8.80;1.00
1361;DHT22;674;45.552;-122.600;2023-04-16T12:50:25;8.90;1.00
1361;DHT22;674;45.552;-122.600;2023-04-16T12:52:56;8.90;1.00
1361;DHT22;674;45.552;-122.600;2023-04-16T12:55:25;8.90;1.00
1361;DHT22;674;45.552;-122.600;2023-04-16T12:57:53;9.00;1.00
1361;DHT22;674;45.552;-122.600;2023-04-16T13:00:22;8.80;1.00
1361;DHT22;674;45.552;-122.600;2023-04-16T13:02:50;8.70;1.00
1361;DHT22;674;45.552;-122.600;2023-04-16T13:05:19;9.20;1.00
1361;DHT22;674;45.552;-122.600;2023-04-16T13:07:48;9.20;1.00
1361;DHT22;674;45.552;-122.600;2023-04-16T13:10:17;8.80;1.00
1361;DHT22;674;45.552;-122.600;2023-04-16T13:12:45;8.90;1.00
1361;DHT22;674;45.552;-122.600;2023-04-16T13:15:14;9.30;1.00
1361;DHT22;674;45.552;-122.600;2023-04-16T13:17:42;8.90;1.00
1361;DHT22;674;45.552;-122.600;2023-04-16T13:20:11;9.00;1.00
1361;DHT22;674;45.552;-122.600;2023-04-16T13:22:39;9.00;1.00
1361;DHT22;674;45.552;-122.600;2023-04-16T13:25:09;8.90;1.00
1361;DHT22;674;45.552;-122.600;2023-04-16T13:27:38;9.30;1.00
1361;DHT22;674;45.552;-122.600;2023-04-16T13:30:07;9.10;1.00
1361;DHT22;674;45.552;-122.600;2023-04-16T13:32:35;9.30;1.00
1361;DHT22;674;45.552;-122.600;2023-04-16T13:35:04;9.20;1.00
1361;DHT22;674;45.552;-122.600;2023-04-16T13:37:34;9.30;1.00
1361;DHT22;674;45.552;-122.600;2023-04-16T13:40:02;9.40;1.00
1361;DHT22;674;45.552;-122.600;2023-04-16T13:42:31;9.50;1.00
1361;DHT22;674;45.552;-122.600;2023-04-16T13:44:59;9.40;1.00
1361;DHT22;674;45.552;-122.600;2023-04-16T13:47:28;9.60;1.00
1361;DHT22;674;45.552;-122.600;2023-04-16T13:49:57;9.60;1.00
1361;DHT22;674;45.552;-122.600;2023-04-16T13:52:25;9.60;1.00
1361;DHT22;674;45.552;-122.600;2023-04-16T13:54:54;9.70;1.00
1361;DHT22;674;45.552;-122.600;2023-04-16T13:57:25;9.70;1.00
1361;DHT22;674;45.552;-122.600;2023-04-16T13:59:55;9.80;1.00
1361;DHT22;674;45.552;-122.600;2023-04-16T14:02:23;9.90;1.00
1361;DHT22;674;45.552;-122.600;2023-04-16T14:04:53;10.00;1.00
1361;DHT22;674;45.552;-122.600;2023-04-16T14:07:22;10.00;1.00
1361;DHT22;674;45.552;-122.600;2023-04-16T14:09:53;10.00;1.00
1361;DHT22;674;45.552;-122.600;2023-04-16T14:12:22;10.00;1.00
1361;DHT22;674;45.552;-122.600;2023-04-16T14:14:50;10.20;1.00
1361;DHT22;674;45.552;-122.600;2023-04-16T14:17:19;10.10;1.00
1361;DHT22;674;45.552;-122.600;2023-04-16T14:19:48;10.20;1.00
1361;DHT22;674;45.552;-122.600;2023-04-16T14:22:16;10.40;1.00
1361;DHT22;674;45.552;-122.600;2023-04-16T14:24:46;10.30;1.00
1361;DHT22;674;45.552;-122.600;2023-04-16T14:27:14;10.00;1.00
1361;DHT22;674;45.552;-122.600;2023-04-16T14:29:43;10.00;1.00
1361;DHT22;674;45.552;-122.600;2023-04-16T14:32:13;10.20;1.00
1361;DHT22;674;45.552;-122.600;2023-04-16T14:34:42;10.00;1.00
1361;DHT22;674;45.552;-122.600;2023-04-16T14:37:11;10.00;1.00
1361;DHT22;674;45.552;-122.600;2023-04-16T14:39:39;10.10;1.00
1361;DHT22;674;45.552;-122.600;2023-04-16T14:42:09;10.30;1.00
1361;DHT22;674;45.552;-122.600;2023-04-16T14:44:38;10.50;1.00
1361;DHT22;674;45.552;-122.600;2023-04-16T14:47:06;10.50;1.00
1361;DHT22;674;45.552;-122.600;2023-04-16T14:49:35;10.50;1.00
1361;DHT22;674;45.552;-122.600;2023-04-16T14:52:04;10.60;1.00
1361;DHT22;674;45.552;-122.600;2023-04-16T14:54:32;10.70;1.00
1361;DHT22;674;45.552;-122.600;2023-04-16T14:57:01;10.40;1.00
1361;DHT22;674;45.552;-122.600;2023-04-16T14:59:30;10.80;1.00
1361;DHT22;674;45.552;-122.600;2023-04-16T15:01:59;10.60;1.00
1361;DHT22;674;45.552;-122.600;2023-04-16T15:04:29;10.20;1.00
1361;DHT22;674;45.552;-122.600;2023-04-16T15:06:58;10.20;1.00
1361;DHT22;674;45.552;-122.600;2023-04-16T15:09:27;10.30;1.00
1361;DHT22;674;45.552;-122.600;2023-04-16T15:11:55;10.00;1.00
1361;DHT22;674;45.552;-122.600;2023-04-16T15:14:25;9.70;1.00
1361;DHT22;674;45.552;-122.600;2023-04-16T15:16:53;9.50;1.00
1361;DHT22;674;45.552;-122.600;2023-04-16T15:19:22;9.50;1.00
1361;DHT22;674;45.552;-122.600;2023-04-16T15:21:50;9.60;1.00
1361;DHT22;674;45.552;-122.600;2023-04-16T15:24:19;9.60;1.00
1361;DHT22;674;45.552;-122.600;2023-04-16T15:26:48;9.60;1.00
1361;DHT22;674;45.552;-122.600;2023-04-16T15:29:16;9.40;1.00
1361;DHT22;674;45.552;-122.600;2023-04-16T15:31:45;9.30;3.80
1361;DHT22;674;45.552;-122.600;2023-04-16T15:34:14;9.70;22.10
1361;DHT22;674;45.552;-122.600;2023-04-16T15:36:43;9.60;17.80
1361;DHT22;674;45.552;-122.600;2023-04-16T15:39:11;9.60;22.30
1361;DHT22;674;45.552;-122.600;2023-04-16T15:41:40;9.50;29.20
1361;DHT22;674;45.552;-122.600;2023-04-16T15:44:26;9.40;50.40
1361;DHT22;674;45.552;-122.600;2023-04-16T15:46:54;9.50;45.80
1361;DHT22;674;45.552;-122.600;2023-04-16T15:49:23;9.40;48.10
1361;DHT22;674;45.552;-122.600;2023-04-16T15:51:52;9.40;50.90
1361;DHT22;674;45.552;-122.600;2023-04-16T15:54:21;9.50;56.80
1361;DHT22;674;45.552;-122.600;2023-04-16T15:56:49;9.40;70.50
1361;DHT22;674;45.552;-122.600;2023-04-16T15:59:18;9.30;78.80
1361;DHT22;674;45.552;-122.600;2023-04-16T16:01:47;9.20;91.90
1361;DHT22;674;45.552;-122.600;2023-04-16T16:04:15;9.70;93.80
1361;DHT22;674;45.552;-122.600;2023-04-16T16:06:44;9.40;95.00
1361;DHT22;674;45.552;-122.600;2023-04-16T16:09:13;9.60;95.20
1361;DHT22;674;45.552;-122.600;2023-04-16T16:11:42;9.60;96.20
1361;DHT22;674;45.552;-122.600;2023-04-16T16:14:10;9.70;97.90
1361;DHT22;674;45.552;-122.600;2023-04-16T16:16:38;9.70;95.00